createdAt,value
2019-02-08T00:02:15.809Z,99432.52
2019-02-08T00:04:46.411Z,99431.48
2019-02-08T00:07:17.204Z,99434.12
2019-02-08T00:09:47.993Z,99442.35
2019-02-08T00:12:19.788Z,99436.30
2019-02-08T00:14:50.476Z,99441.98
2019-02-08T00:17:21.021Z,99442.13
2019-02-08T00:19:52.377Z,99441.39
2019-02-08T00:22:22.985Z,99431.03
2019-02-08T00:24:53.543Z,99448.36
2019-02-08T00:27:24.888Z,99440.80
2019-02-08T00:29:55.367Z,99445.61
2019-02-08T00:32:26.507Z,99441.80
2019-02-08T00:34:57.432Z,99452.72
2019-02-08T00:37:28.074Z,99450.14
2019-02-08T00:39:58.680Z,99446.41
2019-02-08T00:42:29.208Z,99445.41
2019-02-08T00:44:59.806Z,99456.28
2019-02-08T00:47:30.383Z,99457.78
2019-02-08T00:50:01.051Z,99460.87
2019-02-08T00:52:31.570Z,99463.14
2019-02-08T00:55:02.387Z,99462.73
2019-02-08T00:57:33.451Z,99467.61
2019-02-08T01:00:05.130Z,99471.30
2019-02-08T01:02:35.961Z,99479.44
2019-02-08T01:05:10.118Z,99480.41
2019-02-08T01:07:41.231Z,99476.89
2019-02-08T01:10:19.919Z,99474.26
2019-02-08T01:12:50.596Z,99476.58
2019-02-08T01:15:24.290Z,99475.70
2019-02-08T01:17:55.710Z,99480.34
2019-02-08T01:20:26.653Z,99474.52
2019-02-08T01:22:57.936Z,99470.21
2019-02-08T01:25:28.743Z,99475.16
2019-02-08T01:27:59.487Z,99476.98
2019-02-08T01:30:31.261Z,99481.17
2019-02-08T01:33:02.368Z,99478.39
2019-02-08T01:35:33.539Z,99480.41
2019-02-08T01:38:04.227Z,99479.62
2019-02-08T01:40:41.005Z,99476.98
2019-02-08T06:57:50.337Z,99695.87
2019-02-08T07:00:27.545Z,99700.09
2019-02-08T07:03:17.142Z,99700.00
2019-02-08T07:06:02.052Z,99709.34
2019-02-08T07:08:51.649Z,99718.13
2019-02-08T07:11:41.119Z,99715.69
2019-02-08T07:14:30.953Z,99712.86
2019-02-08T07:17:20.489Z,99717.84
2019-02-08T07:20:09.039Z,99720.32
2019-02-08T07:22:58.433Z,99718.62
2019-02-08T07:25:47.981Z,99723.23
2019-02-08T07:28:33.329Z,99716.80
2019-02-08T07:31:13.606Z,99716.33
2019-02-08T07:34:03.126Z,99723.77
2019-02-08T07:36:52.771Z,99721.72
2019-02-08T07:39:34.290Z,99721.69
2019-02-08T07:42:23.859Z,99714.75
2019-02-08T07:45:14.675Z,99721.75
2019-02-08T07:48:04.801Z,99732.20
2019-02-08T07:50:43.933Z,99734.59
2019-02-08T07:53:29.512Z,99740.27
2019-02-08T07:56:18.900Z,99751.19
2019-02-08T07:58:56.996Z,99744.20
2019-02-08T08:01:37.778Z,99741.05
2019-02-08T08:04:30.131Z,99750.89
2019-02-08T08:07:06.282Z,99747.86
2019-02-08T08:09:55.735Z,99751.13
2019-02-08T08:12:34.827Z,99755.54
2019-02-08T08:15:16.892Z,99759.81
2019-02-08T08:18:06.866Z,99766.39
2019-02-08T08:20:52.558Z,99755.87
2019-02-08T08:23:42.696Z,99748.41
2019-02-08T08:26:32.666Z,99742.58
2019-02-08T08:29:22.247Z,99757.22
2019-02-08T08:32:01.853Z,99756.06
2019-02-08T08:35:07.746Z,99758.57
2019-02-08T08:38:18.038Z,99759.70
2019-02-08T08:41:42.546Z,99761.61
2019-02-08T08:45:06.425Z,99754.95
2019-02-08T08:48:11.200Z,99752.70
2019-02-08T08:51:14.707Z,99757.59
2019-02-08T08:54:32.042Z,99754.24
2019-02-08T08:57:31.365Z,99752.34
2019-02-08T09:00:53.045Z,99759.68
2019-02-08T09:04:13.485Z,99757.52
2019-02-08T09:07:37.286Z,99754.61
2019-02-08T09:10:57.926Z,99759.00
2019-02-08T09:14:09.460Z,99757.12
2019-02-08T09:17:37.508Z,99760.84
2019-02-08T09:20:52.443Z,99762.25
2019-02-08T09:24:07.146Z,99755.30
2019-02-08T09:27:27.825Z,99763.98
2019-02-08T09:30:41.817Z,99763.45
2019-02-08T09:34:10.100Z,99765.59
2019-02-08T09:37:14.900Z,99758.64
2019-02-08T09:40:23.809Z,99766.48
2019-02-08T09:43:51.683Z,99766.60
2019-02-08T09:47:19.575Z,99763.89
2019-02-08T09:50:47.429Z,99766.78
2019-02-08T09:53:51.864Z,99761.12
2019-02-08T09:57:07.586Z,99753.29
2019-02-08T10:00:23.905Z,99765.96
2019-02-08T10:03:51.751Z,99764.63
2019-02-08T10:07:15.201Z,99762.81
2019-02-08T10:10:31.378Z,99758.88
2019-02-08T10:13:59.695Z,99758.77
2019-02-08T10:17:10.954Z,99757.14
2019-02-08T10:20:28.305Z,99757.77
2019-02-08T10:23:56.277Z,99756.23
2019-02-08T10:27:24.205Z,99757.25
2019-02-08T10:30:50.206Z,99758.09
2019-02-08T10:34:18.165Z,99762.00
2019-02-08T10:37:46.068Z,99754.27
2019-02-08T10:41:14.021Z,99755.44
2019-02-08T10:44:37.546Z,99747.99
2019-02-08T10:47:54.750Z,99748.81
2019-02-08T10:51:22.685Z,99753.86
2019-02-08T10:54:50.547Z,99746.31
2019-02-08T10:58:18.521Z,99747.47
2019-02-08T11:01:46.478Z,99742.45
2019-02-08T11:05:14.459Z,99746.53
2019-02-08T11:08:29.460Z,99737.32
2019-02-08T11:11:57.381Z,99742.81
2019-02-08T11:15:25.245Z,99744.70
2019-02-08T11:18:52.221Z,99748.20
2019-02-08T11:21:22.816Z,99745.52
2019-02-08T11:23:53.395Z,99744.77
2019-02-08T11:26:24.588Z,99751.11
2019-02-08T11:28:55.390Z,99745.31
2019-02-08T11:31:25.841Z,99742.45
2019-02-08T11:33:56.380Z,99731.64
2019-02-08T11:36:27.007Z,99728.33
2019-02-08T11:38:57.728Z,99728.55
2019-02-08T11:41:28.601Z,99729.13
2019-02-08T11:43:59.281Z,99732.02
2019-02-08T11:46:29.889Z,99728.22
2019-02-08T11:49:00.470Z,99721.13
2019-02-08T11:51:30.999Z,99719.81
2019-02-08T11:54:01.622Z,99717.81
2019-02-08T11:56:32.141Z,99721.53
2019-02-08T11:59:02.850Z,99720.66
2019-02-08T12:01:38.439Z,99716.08
2019-02-08T12:04:09.502Z,99711.47
2019-02-08T12:06:40.130Z,99718.09
2019-02-08T12:09:18.210Z,99705.93
2019-02-08T12:11:49.209Z,99709.62
2019-02-08T12:14:19.922Z,99698.65
2019-02-08T12:16:50.450Z,99695.38
2019-02-08T12:19:21.161Z,99702.53
2019-02-08T12:21:51.861Z,99707.08
2019-02-08T12:24:22.931Z,99691.80
2019-02-08T12:26:53.680Z,99699.02
2019-02-08T12:29:24.421Z,99694.36
2019-02-08T12:31:54.960Z,99694.09
2019-02-08T12:34:25.906Z,99679.27
2019-02-08T12:36:56.522Z,99686.76
2019-02-08T12:39:27.189Z,99691.05
2019-02-08T12:41:58.089Z,99679.07
2019-02-08T12:44:28.897Z,99690.02
2019-02-08T12:46:59.647Z,99676.11
2019-02-08T12:49:30.121Z,99670.77
2019-02-08T12:52:00.993Z,99667.84
2019-02-08T12:54:31.721Z,99668.05
2019-02-08T12:57:03.589Z,99665.52
2019-02-08T12:59:34.346Z,99665.58
2019-02-08T13:02:05.750Z,99667.20
2019-02-08T13:04:36.919Z,99660.52
2019-02-08T13:07:07.600Z,99657.70
2019-02-08T13:09:39.596Z,99658.09
2019-02-08T13:12:10.611Z,99658.71
2019-02-08T13:14:42.346Z,99662.09
2019-02-08T13:17:13.087Z,99663.39
2019-02-08T13:19:43.628Z,99666.80
2019-02-08T13:22:15.456Z,99667.91
2019-02-08T13:24:46.122Z,99660.92
2019-02-08T13:27:16.801Z,99669.61
2019-02-08T13:29:47.632Z,99662.91
2019-02-08T13:32:18.269Z,99666.66
2019-02-08T13:34:48.867Z,99662.30
2019-02-08T13:37:19.506Z,99661.03
2019-02-08T13:39:50.109Z,99657.59
2019-02-08T13:42:20.667Z,99656.41
2019-02-08T13:44:51.216Z,99660.64
2019-02-08T13:47:21.946Z,99662.48
2019-02-08T13:49:52.747Z,99655.75
2019-02-08T13:52:23.426Z,99652.07
2019-02-08T13:54:55.220Z,99654.06
2019-02-08T13:57:27.121Z,99649.02
2019-02-08T13:59:57.875Z,99656.41
2019-02-08T14:02:28.401Z,99650.06
2019-02-08T14:04:59.121Z,99646.22
2019-02-08T14:07:29.760Z,99646.80
2019-02-08T14:10:02.719Z,99649.09
2019-02-08T14:12:34.317Z,99646.79
2019-02-08T14:15:06.188Z,99650.61
2019-02-08T14:17:37.376Z,99646.64
2019-02-08T14:20:11.121Z,99642.70
2019-02-08T14:22:41.806Z,99640.48
2019-02-08T14:25:13.790Z,99644.48
2019-02-08T14:27:45.019Z,99643.20
2019-02-08T14:30:22.012Z,99641.77
2019-02-08T14:32:52.781Z,99632.80
2019-02-08T14:35:23.607Z,99634.61
2019-02-08T14:37:55.101Z,99637.02
2019-02-08T14:40:26.431Z,99625.14
2019-02-08T14:42:57.200Z,99625.16
2019-02-08T14:45:27.961Z,99626.24
2019-02-08T14:47:58.710Z,99621.88
2019-02-08T14:50:30.120Z,99632.90
2019-02-08T14:53:01.199Z,99629.07
2019-02-08T14:55:32.639Z,99629.98
2019-02-08T14:58:03.548Z,99626.26
2019-02-08T15:00:34.278Z,99632.42
2019-02-08T15:03:04.808Z,99631.07
2019-02-08T15:05:35.485Z,99633.16
2019-02-08T15:08:06.478Z,99626.27
2019-02-08T15:10:41.339Z,99617.78
2019-02-08T15:13:12.293Z,99628.57
2019-02-08T15:15:42.881Z,99626.94
2019-02-08T15:18:13.693Z,99621.30
2019-02-08T15:20:44.279Z,99615.16
2019-02-08T15:23:14.946Z,99614.66
2019-02-08T15:25:45.532Z,99614.27
2019-02-08T15:28:16.111Z,99616.34
2019-02-08T15:30:46.939Z,99617.09
2019-02-08T15:33:17.590Z,99622.10
2019-02-08T15:35:48.194Z,99623.63
2019-02-08T15:38:18.938Z,99635.66
2019-02-08T15:40:53.879Z,99635.28
2019-02-08T15:43:26.061Z,99643.72
2019-02-08T15:46:03.693Z,99638.59
2019-02-08T15:48:34.521Z,99625.14
2019-02-08T15:51:05.500Z,99619.98
2019-02-08T15:53:36.381Z,99623.17
2019-02-08T15:56:13.954Z,99629.53
2019-02-08T15:58:44.776Z,99630.05
2019-02-08T16:01:16.238Z,99624.38
2019-02-08T16:03:46.865Z,99627.84
2019-02-08T16:06:17.578Z,99620.78
2019-02-08T16:08:48.255Z,99620.27
2019-02-08T16:11:18.933Z,99616.53
2019-02-08T16:13:49.706Z,99617.41
2019-02-08T16:16:20.472Z,99611.27
2019-02-08T16:18:51.153Z,99616.09
2019-02-08T16:21:21.959Z,99618.63
2019-02-08T16:23:52.722Z,99613.01
2019-02-08T16:26:23.533Z,99612.70
2019-02-08T16:28:54.517Z,99611.03
2019-02-08T16:31:25.174Z,99608.92
2019-02-08T16:33:55.919Z,99608.23
2019-02-08T16:36:27.979Z,99610.00
2019-02-08T16:38:58.705Z,99608.19
2019-02-08T16:41:29.540Z,99604.24
2019-02-08T16:44:00.455Z,99611.48
2019-02-08T16:46:31.576Z,99605.04
2019-02-08T16:49:03.474Z,99598.38
2019-02-08T16:51:34.219Z,99596.70
2019-02-08T16:54:05.174Z,99595.38
2019-02-08T16:56:35.930Z,99592.77
2019-02-08T16:59:07.298Z,99598.38
2019-02-08T17:01:39.189Z,99601.01
2019-02-08T17:04:11.659Z,99597.28
2019-02-08T17:06:42.481Z,99594.30
2019-02-08T17:09:17.955Z,99590.36
2019-02-08T17:11:53.219Z,99586.30
2019-02-08T17:14:25.019Z,99584.20
2019-02-08T17:16:58.818Z,99586.19
2019-02-08T17:19:30.872Z,99589.28
2019-02-08T17:22:04.449Z,99579.53
2019-02-08T17:24:35.244Z,99577.03
2019-02-08T17:27:06.140Z,99585.02
2019-02-08T17:29:41.560Z,99579.57
2019-02-08T17:32:12.507Z,99574.02
2019-02-08T17:34:43.344Z,99569.28
2019-02-08T17:37:15.189Z,99574.36
2019-02-08T17:39:46.025Z,99575.33
2019-02-08T17:42:20.960Z,99576.17
2019-02-08T17:44:51.962Z,99570.34
2019-02-08T17:47:23.196Z,99572.78
2019-02-08T17:49:53.863Z,99571.73
2019-02-08T17:52:25.929Z,99568.97
2019-02-08T17:54:56.581Z,99559.36
2019-02-08T17:57:33.511Z,99552.47
2019-02-08T18:00:11.711Z,99567.73
2019-02-08T18:02:42.492Z,99565.00
2019-02-08T18:05:14.111Z,99558.41
2019-02-08T18:07:46.300Z,99564.73
2019-02-08T18:10:23.683Z,99557.49
2019-02-08T18:12:59.137Z,99552.39
2019-02-08T18:15:30.225Z,99554.20
2019-02-08T18:18:02.898Z,99551.61
2019-02-08T18:20:37.168Z,99549.06
2019-02-08T18:23:08.238Z,99543.14
2019-02-08T18:25:38.935Z,99536.25
2019-02-08T18:28:11.298Z,99541.39
2019-02-08T18:30:42.250Z,99535.56
2019-02-08T18:33:13.419Z,99534.69
2019-02-08T18:35:44.191Z,99532.59
2019-02-08T18:38:16.112Z,99529.90
2019-02-08T18:40:57.349Z,99526.48
2019-02-08T18:43:28.642Z,99527.20
2019-02-08T18:45:59.391Z,99532.94
2019-02-08T18:48:33.722Z,99535.63
2019-02-08T18:51:06.562Z,99529.17
2019-02-08T18:53:37.287Z,99531.09
2019-02-08T18:56:13.062Z,99533.27
2019-02-08T18:58:44.939Z,99538.51
2019-02-08T19:01:19.134Z,99538.09
2019-02-08T19:03:52.962Z,99534.86
2019-02-08T19:06:27.591Z,99536.36
2019-02-08T19:08:58.829Z,99525.11
2019-02-08T19:11:34.303Z,99522.94
2019-02-08T19:14:09.080Z,99524.48
2019-02-08T19:16:39.714Z,99518.56
2019-02-08T19:19:18.665Z,99519.44
2019-02-08T19:21:51.132Z,99517.99
2019-02-08T19:24:26.285Z,99518.04
2019-02-08T19:26:58.011Z,99513.17
2019-02-08T19:29:33.381Z,99509.47
2019-02-08T19:32:07.999Z,99505.37
2019-02-08T19:34:42.940Z,99508.46
2019-02-08T19:37:23.481Z,99509.19
2019-02-08T19:39:56.959Z,99505.96
2019-02-08T19:42:29.251Z,99494.23
2019-02-08T19:45:05.003Z,99494.77
2019-02-08T19:47:36.984Z,99481.70
2019-02-08T19:50:11.331Z,99482.47
2019-02-08T19:52:51.523Z,99479.56
2019-02-08T19:55:25.042Z,99488.72
2019-02-08T19:58:01.519Z,99479.24
2019-02-08T20:00:39.030Z,99476.92
2019-02-08T20:03:11.030Z,99471.19
2019-02-08T20:05:42.170Z,99481.16
2019-02-08T20:08:19.011Z,99479.52
2019-02-08T20:10:52.616Z,99478.34
2019-02-08T20:13:23.465Z,99476.15
2019-02-08T20:15:54.282Z,99479.66
2019-02-08T20:18:31.825Z,99477.83
2019-02-08T20:21:03.828Z,99475.11
2019-02-08T20:23:46.881Z,99478.66
2019-02-08T20:26:18.939Z,99474.83
2019-02-08T20:28:50.469Z,99470.64
2019-02-08T20:31:26.843Z,99466.27
2019-02-08T20:34:00.781Z,99463.22
2019-02-08T20:36:34.920Z,99466.63
2019-02-08T20:39:09.704Z,99467.77
2019-02-08T20:41:40.868Z,99464.03
2019-02-08T20:44:18.036Z,99457.38
2019-02-08T20:46:50.791Z,99458.16
2019-02-08T20:49:31.867Z,99449.73
2019-02-08T20:52:03.898Z,99451.10
2019-02-08T20:54:41.501Z,99446.92
2019-02-08T20:57:15.645Z,99443.45
2019-02-08T20:59:56.034Z,99438.05
2019-02-08T21:02:36.386Z,99440.37
2019-02-08T21:05:09.247Z,99434.27
2019-02-08T21:07:42.709Z,99433.48
2019-02-08T21:10:16.513Z,99425.62
2019-02-08T21:12:49.548Z,99425.25
2019-02-08T21:15:22.918Z,99425.62
2019-02-08T21:17:57.132Z,99418.83
2019-02-08T21:20:29.557Z,99421.56
2019-02-08T21:23:04.292Z,99417.09
2019-02-08T21:25:37.015Z,99422.93
2019-02-08T21:28:10.998Z,99416.19
2019-02-08T21:30:46.263Z,99401.64
2019-02-08T21:33:18.315Z,99404.36
2019-02-08T21:35:51.906Z,99394.58
2019-02-08T21:38:24.194Z,99392.63
2019-02-08T21:40:56.144Z,99389.29
2019-02-08T21:43:28.456Z,99383.70
2019-02-08T21:45:59.256Z,99381.70
2019-02-08T21:48:30.312Z,99377.56
2019-02-08T21:51:02.217Z,99386.34
2019-02-08T21:53:33.080Z,99378.05
2019-02-08T21:56:04.069Z,99384.93
2019-02-08T21:58:37.587Z,99384.20
2019-02-08T22:01:08.848Z,99382.92
2019-02-08T22:03:40.696Z,99368.73
2019-02-08T22:06:12.425Z,99364.05
2019-02-08T22:08:43.692Z,99362.00
2019-02-08T22:11:14.513Z,99355.58
2019-02-08T22:13:45.352Z,99356.36
2019-02-08T22:16:16.487Z,99353.41
2019-02-08T22:18:50.795Z,99364.55
2019-02-08T22:21:24.155Z,99354.59
2019-02-08T22:23:57.024Z,99348.08
2019-02-08T22:26:28.835Z,99352.27
2019-02-08T22:29:00.851Z,99349.45
2019-02-08T22:31:34.054Z,99348.40
2019-02-08T22:34:06.916Z,99346.34
2019-02-08T22:36:40.662Z,99345.52
2019-02-08T22:39:14.256Z,99332.80
2019-02-08T22:41:48.059Z,99330.98
2019-02-08T22:44:23.240Z,99330.98
2019-02-08T22:46:56.862Z,99322.06
2019-02-08T22:49:30.456Z,99317.28
2019-02-08T22:52:01.247Z,99313.47
2019-02-08T22:54:31.927Z,99305.28
2019-02-08T22:57:02.470Z,99302.09
2019-02-08T22:59:32.926Z,99295.33
2019-02-08T23:02:04.131Z,99290.09
2019-02-08T23:04:34.752Z,99292.27
2019-02-08T23:07:05.788Z,99289.22
2019-02-08T23:09:36.355Z,99296.51
2019-02-08T23:12:08.272Z,99288.13
2019-02-08T23:14:39.016Z,99294.59
2019-02-08T23:17:10.170Z,99296.38
2019-02-08T23:19:40.703Z,99288.23
2019-02-08T23:22:11.582Z,99290.63
2019-02-08T23:24:42.359Z,99286.09
2019-02-08T23:27:13.453Z,99279.72
2019-02-08T23:29:44.220Z,99284.31
2019-02-08T23:32:15.019Z,99272.72
2019-02-08T23:34:45.719Z,99271.27
2019-02-08T23:37:16.400Z,99265.58
2019-02-08T23:39:47.164Z,99262.22
2019-02-08T23:42:18.019Z,99264.77
2019-02-08T23:44:48.759Z,99257.39
2019-02-08T23:47:19.557Z,99247.58
2019-02-08T23:49:50.375Z,99250.48
2019-02-08T23:52:21.035Z,99247.94
2019-02-08T23:54:51.659Z,99241.80
2019-02-08T23:57:22.455Z,99242.07
2019-02-08T23:59:53.230Z,99241.77
